M/T Vemaoil Xi — 9HWD7 — position and weather

sailwx.info

Track history (hours):
 
Tides and Currents Weather Stations Pressure Air Temp Water Temp Dewpoint Dewpoint Depression Visibility Wind Speed Wind Dir Waves Ship Positions

M/T Vemaoil Xi

Last reported at 2014-Jul-29 14:33 UTC. Time now 2014-Jul-29 14:46 UTC.
Position N 35°53' E 014°45'.

Length 105 m; draft 7 m.

Type: Tanker. MMSI: 215631000.

Date/timePositionNaut miles runAvg speedWind from/ knotsBaromVisibWave heightAir tempDewpointWater temp
2014-Jul-29 14:33N 35°53' E 014°45'0 0.0
2014-Jul-29 13:33N 35°53' E 014°45'0 0.0
2014-Jul-29 12:33N 35°53' E 014°45'1 0.8
2014-Jul-29 11:33N 35°53' E 014°44'6 6.0
2014-Jul-29 10:33N 35°53' E 014°37'5 0.3
2014-Jul-28 16:22N 35°53' E 014°30'1 1.3
2014-Jul-28 15:33N 35°54' E 014°31'8 7.5
2014-Jul-28 14:33N 35°58' E 014°39'6 6.0
2014-Jul-28 13:33N 36°02' E 014°45'4 3.8
2014-Jul-28 12:33N 36°05' E 014°43'1110.8
2014-Jul-28 11:33N 36°12' E 014°33'1211.6
2014-Jul-28 10:33N 36°18' E 014°20'1211.7
2014-Jul-28 09:33N 36°18' E 014°06'1211.6
2014-Jul-28 08:31N 36°18' E 013°51'1111.4
2014-Jul-28 07:33N 36°23' E 013°39'2411.9
2014-Jul-28 05:31N 36°34' E 013°12'1412.6
2014-Jul-28 04:25N 36°40' E 012°56'43111.4
2014-Jul-26 14:33N 37°03' E 003°58'1212.4
2014-Jul-26 13:33N 37°02' E 003°43'1211.9
2014-Jul-26 12:33N 37°00' E 003°28'15612.0
2014-Jul-25 23:33N 36°39' E 000°15'7412.2
2014-Jul-25 17:29N 36°28' W 001°15'  
Track history (hours):
 
Tides and Currents Weather Stations Pressure Air Temp Water Temp Dewpoint Dewpoint Depression Visibility Wind Speed Wind Dir Waves Ship Positions

M/T Vemaoil Xi

Last reported at 2014-Jul-29 14:33 UTC. Time now 2014-Jul-29 14:46 UTC.
Position N 35°53' E 014°45'.

Length 105 m; draft 7 m.

Type: Tanker. MMSI: 215631000.

Date/timePositionNaut miles runAvg speedWind from/ knotsBaromVisibWave heightAir tempDewpointWater temp
2014-Jul-29 14:33N 35°53' E 014°45'0 0.0
2014-Jul-29 13:33N 35°53' E 014°45'0 0.0
2014-Jul-29 12:33N 35°53' E 014°45'1 0.8
2014-Jul-29 11:33N 35°53' E 014°44'6 6.0
2014-Jul-29 10:33N 35°53' E 014°37'5 0.3
2014-Jul-28 16:22N 35°53' E 014°30'1 1.3
2014-Jul-28 15:33N 35°54' E 014°31'8 7.5
2014-Jul-28 14:33N 35°58' E 014°39'6 6.0
2014-Jul-28 13:33N 36°02' E 014°45'4 3.8
2014-Jul-28 12:33N 36°05' E 014°43'1110.8
2014-Jul-28 11:33N 36°12' E 014°33'1211.6
2014-Jul-28 10:33N 36°18' E 014°20'1211.7
2014-Jul-28 09:33N 36°18' E 014°06'1211.6
2014-Jul-28 08:31N 36°18' E 013°51'1111.4
2014-Jul-28 07:33N 36°23' E 013°39'2411.9
2014-Jul-28 05:31N 36°34' E 013°12'1412.6
2014-Jul-28 04:25N 36°40' E 012°56'43111.4
2014-Jul-26 14:33N 37°03' E 003°58'1212.4
2014-Jul-26 13:33N 37°02' E 003°43'1211.9
2014-Jul-26 12:33N 37°00' E 003°28'15612.0
2014-Jul-25 23:33N 36°39' E 000°15'7412.2
2014-Jul-25 17:29N 36°28' W 001°15'  

Dump ship's entire track history